Time;durP1;ratioP1;P1;durP2;ratioP2;P2;SDS_P1;SDS_P2;PMS_P1;PMS_P2;Temp;Humidity;BMP_temperature;BMP_pressure;BME280_temperature;BME280_humidity;BME280_pressure;Samples;Min_cycle;Max_cycle;Signal;HPM_P1;HPM_P2
2022/01/31 00:01:59;;;;;;;;;;;;;;;25.76;56.74;96668.38;608575;233;67066;-65
2022/01/31 00:04:26;;;;;;;;;;;;;;;25.76;58.68;96665.69;608501;233;62750;-65
2022/01/31 00:06:54;;;;;;;;;;;;;;;25.75;58.70;96658.69;608532;231;64898;-65
2022/01/31 00:09:23;;;;;;;;;;;;;;;25.72;55.69;96667.39;608529;233;67187;-65
2022/01/31 00:11:58;;;;;;;;;;;;;;;25.73;59.33;96669.00;608512;233;62875;-65
2022/01/31 00:14:33;;;;;;;;;;;;;;;25.71;58.50;96675.80;608357;233;67131;-66
2022/01/31 00:16:58;;;;;;;;;;;;;;;25.71;58.22;96683.87;608375;233;67078;-66
2022/01/31 00:19:25;;;;;;;;;;;;;;;25.69;58.70;96684.16;608520;233;65033;-66
2022/01/31 00:21:53;;;;;;;;;;;;;;;25.68;58.89;96680.69;608528;233;67243;-66
2022/01/31 00:24:21;;;;;;;;;;;;;;;25.67;56.83;96673.72;608539;233;66927;-69
2022/01/31 00:26:48;;;;;;;;;;;;;;;25.66;59.31;96685.57;608500;233;64846;-69
2022/01/31 00:29:15;;;;;;;;;;;;;;;25.65;58.51;96686.69;608576;233;67016;-69
2022/01/31 00:31:43;;;;;;;;;;;;;;;25.64;58.32;96692.36;608510;233;66703;-69
2022/01/31 00:34:11;;;;;;;;;;;;;;;25.64;58.91;96686.98;608509;231;65004;-69
2022/01/31 00:36:39;;;;;;;;;;;;;;;25.63;56.93;96680.02;608518;233;67342;-69
2022/01/31 00:39:06;;;;;;;;;;;;;;;25.64;58.07;96686.98;608492;233;67157;-69
2022/01/31 00:41:35;;;;;;;;;;;;;;;25.63;57.81;96677.34;608559;233;65097;-69
2022/01/31 00:44:15;;;;;;;;;;;;;;;25.64;59.49;96676.22;608499;233;67211;-69
2022/01/31 00:46:41;;;;;;;;;;;;;;;25.61;58.66;96672.25;607922;233;64600;-69
2022/01/31 00:49:01;;;;;;;;;;;;;;;25.61;58.30;96676.84;608023;233;62558;-69
2022/01/31 00:51:28;;;;;;;;;;;;;;;25.58;58.72;96670.18;608510;233;67201;-69
2022/01/31 00:53:56;;;;;;;;;;;;;;;25.58;59.25;96667.48;608467;232;66810;-69
2022/01/31 00:56:23;;;;;;;;;;;;;;;25.58;59.33;96674.77;608576;233;65063;-69
2022/01/31 00:58:51;;;;;;;;;;;;;;;25.57;57.40;96665.91;608491;233;66835;-69
2022/01/31 01:01:18;;;;;;;;;;;;;;;25.56;58.40;96671.59;608485;233;66924;-69
2022/01/31 01:03:46;;;;;;;;;;;;;;;25.56;58.27;96668.90;608494;233;65853;-69
2022/01/31 01:06:14;;;;;;;;;;;;;;;25.54;58.62;96661.16;608534;233;68157;-69
2022/01/31 01:08:41;;;;;;;;;;;;;;;25.53;59.13;96658.76;608538;233;67051;-70
2022/01/31 01:11:09;;;;;;;;;;;;;;;25.53;57.61;96658.76;608484;233;64875;-69
2022/01/31 01:13:37;;;;;;;;;;;;;;;25.52;58.62;96646.42;608533;233;67040;-69
2022/01/31 01:16:04;;;;;;;;;;;;;;;25.51;58.34;96660.95;608514;231;67141;-69
2022/01/31 01:18:32;;;;;;;;;;;;;;;25.50;58.32;96654.78;608509;233;66121;-66
2022/01/31 01:21:00;;;;;;;;;;;;;;;25.49;59.37;96645.14;608592;233;67204;-66
2022/01/31 01:23:27;;;;;;;;;;;;;;;25.51;59.35;96644.81;608505;233;64685;-66
2022/01/31 01:25:55;;;;;;;;;;;;;;;25.49;60.03;96655.11;608500;233;63866;-66
2022/01/31 01:28:24;;;;;;;;;;;;;;;25.46;58.71;96649.23;608494;233;67261;-66
2022/01/31 01:30:52;;;;;;;;;;;;;;;25.47;59.17;96647.34;608461;233;67531;-66
2022/01/31 01:33:22;;;;;;;;;;;;;;;25.46;58.80;96651.92;608550;233;65648;-66
2022/01/31 01:35:53;;;;;;;;;;;;;;;25.46;58.55;96646.55;608499;233;67595;-67
2022/01/31 01:38:27;;;;;;;;;;;;;;;25.45;59.95;96647.66;608478;230;67322;-66
2022/01/31 01:40:50;;;;;;;;;;;;;;;25.45;59.73;96647.66;608356;233;65161;-66
2022/01/31 01:43:19;;;;;;;;;;;;;;;25.44;59.77;96654.13;608501;233;65727;-66
2022/01/31 01:45:48;;;;;;;;;;;;;;;25.43;57.70;96655.23;608524;233;66873;-66
2022/01/31 01:48:17;;;;;;;;;;;;;;;25.43;59.00;96643.69;608635;233;41630;-66
2022/01/31 01:50:45;;;;;;;;;;;;;;;25.43;59.75;96651.76;608455;233;67678;-66
2022/01/31 01:53:14;;;;;;;;;;;;;;;25.41;59.93;96646.67;608548;232;67268;-66
2022/01/31 01:55:45;;;;;;;;;;;;;;;25.39;59.65;96648.88;609449;232;62906;-69
2022/01/31 01:58:16;;;;;;;;;;;;;;;25.38;60.47;96636.53;609438;233;67070;-66
2022/01/31 02:00:51;;;;;;;;;;;;;;;25.38;58.92;96649.20;609539;233;44258;-67
2022/01/31 02:03:21;;;;;;;;;;;;;;;25.39;60.36;96645.39;609434;233;43890;-67
2022/01/31 02:05:49;;;;;;;;;;;;;;;25.38;59.76;96647.30;609478;233;65005;-70
2022/01/31 02:08:20;;;;;;;;;;;;;;;25.38;60.30;96647.30;609493;233;67289;-70
2022/01/31 02:10:48;;;;;;;;;;;;;;;25.35;59.12;96645.22;609512;233;62936;-70
2022/01/31 02:13:17;;;;;;;;;;;;;;;25.35;60.38;96653.30;609343;232;44031;-70
2022/01/31 02:16:06;;;;;;;;;;;;;;;25.36;59.84;96656.77;609577;233;49266;-70
2022/01/31 02:18:43;;;;;;;;;;;;;;;25.36;60.13;96654.87;609253;232;42615;-70
2022/01/31 02:21:07;;;;;;;;;;;;;;;25.34;59.67;96656.28;609273;232;67619;-70
2022/01/31 02:23:35;;;;;;;;;;;;;;;25.35;60.05;96652.50;609485;232;67152;-70
2022/01/31 02:26:14;;;;;;;;;;;;;;;25.36;60.94;96654.87;605128;233;46356;-70
2022/01/31 02:28:49;;;;;;;;;;;;;;;25.36;61.10;96664.84;609441;232;45432;-70
2022/01/31 02:31:17;;;;;;;;;;;;;;;25.34;60.06;96657.06;609526;233;65571;-70
2022/01/31 02:33:46;;;;;;;;;;;;;;;25.33;60.59;96658.18;609573;232;42606;-70
2022/01/31 02:36:14;;;;;;;;;;;;;;;25.31;60.49;96665.75;609532;233;67222;-70
2022/01/31 02:38:41;;;;;;;;;;;;;;;25.32;59.75;96656.61;609429;233;66897;-69
2022/01/31 02:41:09;;;;;;;;;;;;;;;25.32;60.69;96663.85;609480;233;62519;-67
2022/01/31 02:43:37;;;;;;;;;;;;;;;25.30;58.95;96660.70;609464;233;67313;-67
2022/01/31 02:46:07;;;;;;;;;;;;;;;25.29;58.90;96665.29;609463;232;45447;-67
2022/01/31 02:48:35;;;;;;;;;;;;;;;25.30;60.60;96666.08;609495;233;63641;-67
2022/01/31 02:51:10;;;;;;;;;;;;;;;25.29;58.30;96665.29;609454;233;68048;-67
2022/01/31 02:53:40;;;;;;;;;;;;;;;25.28;57.59;96665.58;609251;232;67303;-67
2022/01/31 02:56:03;;;;;;;;;;;;;;;25.27;61.04;96688.21;609278;232;65494;-67
2022/01/31 02:58:30;;;;;;;;;;;;;;;25.23;54.42;96671.88;609517;233;67169;-67
2022/01/31 03:00:58;;;;;;;;;;;;;;;25.26;59.02;96676.63;609517;233;64476;-67
2022/01/31 03:03:34;;;;;;;;;;;;;;;25.25;59.36;96667.78;609375;232;42477;-66
2022/01/31 03:06:01;;;;;;;;;;;;;;;25.24;58.42;96673.48;609457;233;65819;-66
2022/01/31 03:08:30;;;;;;;;;;;;;;;25.24;59.67;96668.89;609452;233;67858;-66
2022/01/31 03:10:59;;;;;;;;;;;;;;;25.22;57.22;96667.61;609465;233;42397;-66
2022/01/31 03:13:31;;;;;;;;;;;;;;;25.20;60.05;96673.28;609094;232;44356;-67
2022/01/31 03:15:59;;;;;;;;;;;;;;;25.18;58.40;96675.50;609464;233;66910;-67
2022/01/31 03:18:44;;;;;;;;;;;;;;;25.18;58.20;96675.50;608746;233;44036;-67
2022/01/31 03:21:12;;;;;;;;;;;;;;;25.20;60.25;96667.11;609467;233;67229;-67
2022/01/31 03:23:39;;;;;;;;;;;;;;;25.18;60.06;96672.81;609503;233;67091;-67
2022/01/31 03:26:07;;;;;;;;;;;;;;;25.17;58.30;96665.04;609496;233;66083;-67
2022/01/31 03:28:36;;;;;;;;;;;;;;;25.18;60.89;96664.75;609478;233;67661;-66
2022/01/31 03:31:03;;;;;;;;;;;;;;;25.16;60.50;96690.35;609481;233;64948;-66
2022/01/31 03:33:33;;;;;;;;;;;;;;;25.15;59.22;96688.75;609438;233;65143;-66
2022/01/31 03:36:00;;;;;;;;;;;;;;;25.16;60.63;96672.31;609436;233;67395;-66
2022/01/31 03:38:28;;;;;;;;;;;;;;;25.14;58.77;96665.63;609490;233;67031;-66
2022/01/31 03:40:55;;;;;;;;;;;;;;;25.13;58.77;96662.15;609530;233;62984;-66
2022/01/31 03:43:23;;;;;;;;;;;;;;;25.12;57.66;96670.50;609429;232;67325;-66
2022/01/31 03:45:51;;;;;;;;;;;;;;;25.13;60.33;96658.67;609460;233;67033;-66
2022/01/31 03:48:20;;;;;;;;;;;;;;;25.11;60.65;96668.93;609509;232;41825;-66
2022/01/31 03:50:48;;;;;;;;;;;;;;;25.10;59.07;96662.77;609490;233;64877;-66
2022/01/31 03:53:15;;;;;;;;;;;;;;;25.11;59.44;96664.34;609473;232;64516;-66
2022/01/31 03:55:43;;;;;;;;;;;;;;;25.10;55.83;96661.95;609431;233;65200;-66
2022/01/31 03:58:10;;;;;;;;;;;;;;;25.10;60.14;96667.32;609471;233;67190;-66
2022/01/31 04:00:43;;;;;;;;;;;;;;;25.06;58.83;96675.22;609294;232;48285;-66
2022/01/31 04:03:10;;;;;;;;;;;;;;;25.07;60.21;96668.72;609448;233;63374;-66
2022/01/31 04:05:37;;;;;;;;;;;;;;;25.05;60.21;96680.91;609482;233;67589;-66
2022/01/31 04:08:05;;;;;;;;;;;;;;;25.03;57.67;96667.77;609623;233;37644;-66
2022/01/31 04:10:32;;;;;;;;;;;;;;;25.05;59.13;96678.23;609550;233;37616;-66
2022/01/31 04:12:59;;;;;;;;;;;;;;;25.05;59.74;96686.29;609440;233;67726;-66
2022/01/31 04:15:26;;;;;;;;;;;;;;;25.02;58.22;96679.63;609477;233;67192;-66
2022/01/31 04:17:52;;;;;;;;;;;;;;;25.02;57.30;96693.86;609471;233;65632;-66
2022/01/31 04:20:20;;;;;;;;;;;;;;;24.99;56.33;96694.47;609525;233;65331;-66
2022/01/31 04:23:01;;;;;;;;;;;;;;;25.00;59.28;96690.67;609409;233;67811;-66
2022/01/31 04:26:22;;;;;;;;;;;;;;;24.98;56.71;96705.52;609040;232;62381;-66
2022/01/31 04:28:04;;;;;;;;;;;;;;;24.98;57.22;96695.55;605066;232;65190;-65
2022/01/31 04:30:31;;;;;;;;;;;;;;;24.96;57.50;96705.02;609436;232;69271;-66
2022/01/31 04:32:58;;;;;;;;;;;;;;;24.96;58.27;96699.64;609462;233;65599;-66
2022/01/31 04:35:26;;;;;;;;;;;;;;;24.96;58.61;96700.46;609475;233;67589;-66
2022/01/31 04:37:53;;;;;;;;;;;;;;;24.93;57.75;96703.73;609447;233;67451;-66
2022/01/31 04:40:20;;;;;;;;;;;;;;;24.94;59.01;96707.23;609491;233;63378;-66
2022/01/31 04:42:47;;;;;;;;;;;;;;;24.93;59.89;96701.04;609456;233;64988;-69
2022/01/31 04:45:14;;;;;;;;;;;;;;;24.94;59.07;96699.96;609482;233;67503;-70
2022/01/31 04:47:41;;;;;;;;;;;;;;;24.90;58.70;96704.34;609429;233;65661;-69
2022/01/31 04:50:08;;;;;;;;;;;;;;;24.91;60.12;96703.27;609424;233;68092;-70
2022/01/31 04:52:38;;;;;;;;;;;;;;;24.90;57.59;96707.03;609442;233;67608;-70
2022/01/31 04:55:04;;;;;;;;;;;;;;;24.90;60.42;96700.86;609489;232;37571;-70
2022/01/31 04:57:30;;;;;;;;;;;;;;;24.89;57.66;96710.83;609504;233;66820;-70
2022/01/31 04:59:57;;;;;;;;;;;;;;;24.88;59.11;96703.88;609477;232;67332;-71
2022/01/31 05:02:25;;;;;;;;;;;;;;;24.89;59.50;96707.34;609431;233;64423;-70
2022/01/31 05:04:52;;;;;;;;;;;;;;;24.85;58.92;96699.08;609463;233;67559;-70
2022/01/31 05:07:19;;;;;;;;;;;;;;;24.87;59.27;96696.89;609474;233;67449;-70
2022/01/31 05:09:45;;;;;;;;;;;;;;;24.86;57.24;96689.14;609489;233;63413;-70
2022/01/31 05:12:12;;;;;;;;;;;;;;;24.83;56.81;96684.35;609429;233;65420;-70
2022/01/31 05:14:39;;;;;;;;;;;;;;;24.82;58.53;96688.94;609460;233;65372;-71
2022/01/31 05:17:06;;;;;;;;;;;;;;;24.83;56.14;96684.35;609414;233;65582;-70
2022/01/31 05:19:33;;;;;;;;;;;;;;;24.80;60.14;96691.16;609452;233;67609;-70
2022/01/31 05:22:00;;;;;;;;;;;;;;;24.79;58.53;96689.55;609496;233;67351;-70
2022/01/31 05:24:28;;;;;;;;;;;;;;;24.77;60.67;96689.87;609450;233;65786;-70
2022/01/31 05:26:55;;;;;;;;;;;;;;;24.79;57.42;96697.61;609462;233;65427;-70
2022/01/31 05:29:22;;;;;;;;;;;;;;;24.77;57.72;96703.30;609480;233;65003;-70
2022/01/31 05:31:49;;;;;;;;;;;;;;;24.77;57.45;96707.86;609436;232;63380;-70
2022/01/31 05:34:16;;;;;;;;;;;;;;;24.73;58.05;96717.64;609499;233;67764;-70
2022/01/31 05:36:43;;;;;;;;;;;;;;;24.72;59.08;96710.69;609419;233;67790;-70
2022/01/31 05:39:10;;;;;;;;;;;;;;;24.74;57.19;96709.26;609564;233;41782;-70
2022/01/31 05:41:36;;;;;;;;;;;;;;;24.73;58.66;96712.27;609479;233;67600;-71
2022/01/31 05:44:04;;;;;;;;;;;;;;;24.72;57.84;96711.48;609455;233;67488;-70
2022/01/31 05:46:30;;;;;;;;;;;;;;;24.73;59.43;96714.95;609529;233;65689;-70
2022/01/31 05:48:57;;;;;;;;;;;;;;;24.71;57.46;96714.45;609474;233;68105;-71
2022/01/31 05:51:24;;;;;;;;;;;;;;;24.70;59.70;96705.60;609496;233;67428;-71
2022/01/31 05:53:51;;;;;;;;;;;;;;;24.69;56.11;96708.58;609467;232;65596;-71
2022/01/31 05:56:19;;;;;;;;;;;;;;;24.67;60.18;96698.14;609585;233;37523;-72
2022/01/31 05:58:46;;;;;;;;;;;;;;;24.68;59.28;96696.25;609531;233;65273;-71
2022/01/31 06:01:13;;;;;;;;;;;;;;;24.68;60.46;96707.00;609457;233;65668;-71
2022/01/31 06:03:40;;;;;;;;;;;;;;;24.65;60.37;96704.92;609350;233;66106;-71
2022/01/31 06:06:08;;;;;;;;;;;;;;;24.66;59.58;96707.28;609416;233;65773;-72
2022/01/31 06:08:35;;;;;;;;;;;;;;;24.66;60.06;96709.19;609451;233;62968;-71
2022/01/31 06:11:03;;;;;;;;;;;;;;;24.68;61.25;96705.09;609507;232;67196;-71
2022/01/31 06:13:33;;;;;;;;;;;;;;;24.66;59.60;96711.88;609432;233;66869;-71
2022/01/31 06:16:00;;;;;;;;;;;;;;;24.64;57.94;96704.12;609495;232;64789;-71
2022/01/31 06:18:27;;;;;;;;;;;;;;;24.66;56.87;96706.50;609509;233;64769;-71
2022/01/31 06:20:55;;;;;;;;;;;;;;;24.65;57.72;96704.92;609507;233;66652;-71
2022/01/31 06:23:23;;;;;;;;;;;;;;;24.65;59.74;96700.33;609500;233;64878;-71
2022/01/31 06:25:50;;;;;;;;;;;;;;;24.64;56.95;96695.28;609501;233;65549;-71
2022/01/31 06:28:18;;;;;;;;;;;;;;;24.63;56.72;96688.30;609463;233;66741;-71
2022/01/31 06:30:45;;;;;;;;;;;;;;;24.64;57.36;96695.28;609447;233;65171;-71
2022/01/31 06:33:18;;;;;;;;;;;;;;;24.63;59.13;96690.98;608630;233;64578;-71
2022/01/31 06:35:44;;;;;;;;;;;;;;;24.63;59.30;96689.09;608562;232;64497;-71
2022/01/31 06:38:11;;;;;;;;;;;;;;;24.62;58.47;96681.34;609482;233;64972;-71
2022/01/31 06:40:38;;;;;;;;;;;;;;;24.61;57.14;96682.42;609429;233;66776;-71
2022/01/31 06:43:06;;;;;;;;;;;;;;;24.59;58.52;96686.22;609444;233;66671;-71
2022/01/31 06:45:33;;;;;;;;;;;;;;;24.58;57.58;96690.02;609448;233;64997;-72
2022/01/31 06:48:01;;;;;;;;;;;;;;;24.58;57.00;96684.64;609471;233;67017;-71
2022/01/31 06:50:29;;;;;;;;;;;;;;;24.58;59.16;96690.02;609416;233;65127;-71
2022/01/31 06:52:56;;;;;;;;;;;;;;;24.58;57.06;96681.13;609408;232;64873;-71
2022/01/31 06:55:25;;;;;;;;;;;;;;;24.53;59.29;96687.43;609454;233;64911;-70
2022/01/31 06:57:52;;;;;;;;;;;;;;;24.55;59.00;96674.50;608767;233;67078;-71
2022/01/31 07:00:23;;;;;;;;;;;;;;;24.56;59.58;96680.66;609230;230;64890;-70
2022/01/31 07:02:54;;;;;;;;;;;;;;;24.55;58.59;96661.06;609463;233;48288;-70
2022/01/31 07:05:22;;;;;;;;;;;;;;;24.57;59.96;96674.19;609251;233;67860;-72
2022/01/31 07:07:49;;;;;;;;;;;;;;;24.58;60.03;96667.70;609235;233;65011;-70
2022/01/31 07:10:17;;;;;;;;;;;;;;;24.60;58.74;96660.14;609345;233;66979;-69
2022/01/31 07:12:52;;;;;;;;;;;;;;;24.61;58.89;96655.55;609342;233;67941;-70
2022/01/31 07:15:17;;;;;;;;;;;;;;;24.60;59.52;96660.14;609124;231;65111;-70
2022/01/31 07:17:44;;;;;;;;;;;;;;;24.60;59.84;96654.77;609306;233;67587;-69
2022/01/31 07:20:22;;;;;;;;;;;;;;;24.59;59.26;96645.13;609368;233;64811;-71
2022/01/31 07:22:49;;;;;;;;;;;;;;;24.59;58.70;96645.92;609172;231;62944;-61
2022/01/31 07:25:22;;;;;;;;;;;;;;;24.58;59.34;96646.20;609326;231;64818;-62
2022/01/31 07:27:41;;;;;;;;;;;;;;;24.52;58.44;96632.09;609189;231;65756;-62
2022/01/31 07:30:09;;;;;;;;;;;;;;;24.51;60.33;96640.48;609445;233;64989;-65
2022/01/31 07:32:41;;;;;;;;;;;;;;;24.47;58.63;96645.67;609361;233;67251;-70
2022/01/31 07:35:06;;;;;;;;;;;;;;;24.47;61.88;96651.04;609287;231;66886;-69
2022/01/31 07:37:35;;;;;;;;;;;;;;;24.49;60.09;96646.14;609408;233;66124;-68
2022/01/31 07:40:04;;;;;;;;;;;;;;;24.46;59.66;96645.95;609351;233;64881;-69
2022/01/31 07:42:31;;;;;;;;;;;;;;;24.48;59.97;96641.08;609401;233;67093;-68
2022/01/31 07:45:00;;;;;;;;;;;;;;;24.47;58.05;96634.92;609403;233;65698;-68
2022/01/31 07:47:29;;;;;;;;;;;;;;;24.46;59.06;96635.21;609375;233;66955;-69
2022/01/31 07:49:57;;;;;;;;;;;;;;;24.47;57.99;96639.48;609385;233;66994;-69
2022/01/31 07:52:25;;;;;;;;;;;;;;;24.48;60.34;96627.66;609405;233;62788;-65
2022/01/31 07:54:53;;;;;;;;;;;;;;;24.44;58.36;96618.59;614064;230;67257;-69
2022/01/31 07:57:24;;;;;;;;;;;;;;;24.43;60.38;96625.05;615433;230;66398;-68
2022/01/31 07:59:50;;;;;;;;;;;;;;;24.44;61.01;96630.13;615345;230;65197;-67
2022/01/31 08:02:18;;;;;;;;;;;;;;;24.44;60.95;96624.76;615314;230;67882;-66
2022/01/31 08:04:45;;;;;;;;;;;;;;;24.42;58.73;96621.58;615374;230;67302;-65
2022/01/31 08:07:13;;;;;;;;;;;;;;;24.44;60.75;96630.13;615005;230;64927;-65
2022/01/31 08:09:40;;;;;;;;;;;;;;;24.47;61.97;96632.23;615460;230;67190;-63
2022/01/31 08:12:08;;;;;;;;;;;;;;;24.48;62.09;96628.44;615458;230;66888;-64
2022/01/31 08:14:36;;;;;;;;;;;;;;;24.49;62.87;96632.70;615467;230;65025;-64
2022/01/31 08:17:04;;;;;;;;;;;;;;;24.51;62.21;96633.20;615424;230;67112;-64
2022/01/31 08:19:33;;;;;;;;;;;;;;;24.53;63.54;96630.23;615497;230;66869;-65
2022/01/31 08:22:01;;;;;;;;;;;;;;;24.53;63.49;96628.33;615543;230;65017;-65
2022/01/31 08:24:28;;;;;;;;;;;;;;;24.54;62.19;96635.28;615414;230;66967;-65
2022/01/31 08:26:56;;;;;;;;;;;;;;;24.55;63.30;96626.14;615411;230;66952;-65
2022/01/31 08:29:35;;;;;;;;;;;;;;;24.59;63.39;96626.33;615462;230;62887;-65
2022/01/31 08:31:57;;;;;;;;;;;;;;;24.58;62.84;96622.84;614960;230;64959;-65
2022/01/31 08:35:47;;;;;;;;;;;;;;;24.60;62.66;96633.27;614810;230;67133;-65
2022/01/31 08:36:54;;;;;;;;;;;;;;;24.63;63.36;96634.56;614232;230;62607;-65
2022/01/31 08:39:23;;;;;;;;;;;;;;;24.64;63.03;96638.86;615285;230;67190;-64
2022/01/31 08:41:52;;;;;;;;;;;;;;;24.66;63.61;96634.74;615464;230;65208;-64
2022/01/31 08:44:22;;;;;;;;;;;;;;;24.68;63.06;96624.48;615471;230;62727;-64
2022/01/31 08:46:51;;;;;;;;;;;;;;;24.70;61.75;96629.57;615489;230;67216;-63
2022/01/31 08:49:21;;;;;;;;;;;;;;;24.72;62.99;96630.86;615505;230;64861;-63
2022/01/31 08:51:49;;;;;;;;;;;;;;;24.74;63.14;96625.16;615413;230;63108;-64
2022/01/31 08:54:17;;;;;;;;;;;;;;;24.75;63.02;96634.83;615393;230;67097;-63
2022/01/31 08:56:45;;;;;;;;;;;;;;;24.76;61.42;96631.03;615335;230;67102;-63
2022/01/31 08:59:16;;;;;;;;;;;;;;;24.83;62.71;96625.22;615334;230;64900;-65
2022/01/31 09:01:43;;;;;;;;;;;;;;;24.87;61.97;96631.59;615461;230;67122;-64
2022/01/31 09:04:12;;;;;;;;;;;;;;;24.91;63.35;96628.00;615476;230;64957;-64
2022/01/31 09:06:43;;;;;;;;;;;;;;;24.93;62.75;96625.78;615266;230;65050;-62
2022/01/31 09:09:09;;;;;;;;;;;;;;;24.96;62.81;96627.88;615365;230;67096;-64
2022/01/31 09:11:37;;;;;;;;;;;;;;;24.98;62.91;96633.72;615357;230;66871;-61
2022/01/31 09:14:04;;;;;;;;;;;;;;;25.00;63.84;96611.92;615127;230;63014;-66
2022/01/31 09:16:32;;;;;;;;;;;;;;;25.00;62.20;96612.71;615320;230;66984;-66
2022/01/31 09:19:00;;;;;;;;;;;;;;;25.06;62.08;96609.91;615329;230;67351;-66
2022/01/31 09:21:28;;;;;;;;;;;;;;;25.09;63.00;96607.38;615348;230;63103;-66
2022/01/31 09:23:55;;;;;;;;;;;;;;;25.12;59.44;96600.59;615328;230;67268;-70
2022/01/31 09:26:24;;;;;;;;;;;;;;;25.15;61.98;96586.56;615437;230;66893;-67
2022/01/31 09:28:52;;;;;;;;;;;;;;;25.16;62.71;96590.86;615300;230;64860;-67
2022/01/31 09:31:20;;;;;;;;;;;;;;;25.17;61.41;96584.37;615407;230;67042;-67
2022/01/31 09:33:48;;;;;;;;;;;;;;;25.18;62.17;96586.77;615241;230;64821;-71
2022/01/31 09:36:16;;;;;;;;;;;;;;;25.21;61.42;96591.52;615200;230;62954;-71
2022/01/31 09:38:43;;;;;;;;;;;;;;;25.23;61.11;96580.44;615259;230;64226;-70
2022/01/31 09:41:15;;;;;;;;;;;;;;;25.27;61.13;96565.28;614851;230;67094;-72
2022/01/31 09:46:43;;;;;;;;;;;;;;;25.32;59.27;96562.47;615393;230;65051;-71
2022/01/31 09:48:45;;;;;;;;;;;;;;;25.34;60.35;96562.92;614285;230;67109;-72
2022/01/31 09:51:14;;;;;;;;;;;;;;;25.38;61.16;96560.43;615220;230;64844;-69
2022/01/31 09:53:43;;;;;;;;;;;;;;;25.39;59.94;96562.80;613384;230;64899;-70
2022/01/31 09:56:12;;;;;;;;;;;;;;;25.44;58.66;96548.42;609185;233;67985;-70
2022/01/31 09:58:41;;;;;;;;;;;;;;;25.48;58.10;96533.23;609141;233;65098;-70
2022/01/31 10:01:10;;;;;;;;;;;;;;;25.51;58.44;96551.47;609410;233;67185;-70
2022/01/31 10:03:54;;;;;;;;;;;;;;;25.54;57.72;96536.59;609307;230;67040;-71
2022/01/31 10:06:23;;;;;;;;;;;;;;;25.56;58.20;96528.98;609382;233;65136;-69
2022/01/31 10:09:07;;;;;;;;;;;;;;;25.55;61.28;96514.75;609364;233;64929;-72
2022/01/31 10:11:41;;;;;;;;;;;;;;;25.56;59.47;96508.25;609345;233;66959;-70
2022/01/31 10:16:58;;;;;;;;;;;;;;;25.63;56.25;96497.05;609248;233;65116;-70
2022/01/31 10:19:26;;;;;;;;;;;;;;;25.64;57.11;96494.02;609372;233;67070;-70
2022/01/31 10:21:58;;;;;;;;;;;;;;;25.66;57.28;96483.74;609356;233;65239;-70
2022/01/31 10:24:26;;;;;;;;;;;;;;;25.69;56.00;96485.02;609354;233;64976;-70
2022/01/31 10:26:55;;;;;;;;;;;;;;;25.71;57.21;96473.95;609469;233;66537;-71
2022/01/31 10:29:23;;;;;;;;;;;;;;;25.74;55.87;96473.31;609489;233;65216;-71
2022/01/31 10:32:01;;;;;;;;;;;;;;;25.76;56.25;96463.04;609358;233;64792;-71
2022/01/31 10:34:31;;;;;;;;;;;;;;;25.78;56.71;96456.23;609419;233;67041;-71
2022/01/31 10:37:03;;;;;;;;;;;;;;;25.80;56.33;96448.61;609412;233;65099;-71
2022/01/31 10:45:41;;;;;;;;;;;;;;;25.81;54.57;96430.56;609291;233;63155;-63
2022/01/31 10:51:26;;;;;;;;;;;;;;;25.82;53.72;96416.80;602181;235;65125;-60
2022/01/31 10:53:31;;;;;;;;;;;;;;;25.84;54.76;96401.16;601392;235;65376;-65
2022/01/31 10:55:58;;;;;;;;;;;;;;;25.86;54.04;96396.26;602278;235;66958;-64
2022/01/31 10:58:27;;;;;;;;;;;;;;;25.87;54.24;96394.35;602279;235;67085;-64
2022/01/31 11:00:54;;;;;;;;;;;;;;;25.87;53.59;96387.06;602109;235;65073;-64
2022/01/31 11:03:28;;;;;;;;;;;;;;;25.90;53.56;96382.95;602274;235;67454;-63
2022/01/31 11:05:56;;;;;;;;;;;;;;;25.91;54.40;96384.52;602331;235;67033;-64
2022/01/31 11:08:23;;;;;;;;;;;;;;;25.93;53.83;96381.52;602247;235;64852;-64
2022/01/31 11:10:52;;;;;;;;;;;;;;;25.93;54.25;96382.30;602263;235;67222;-64
2022/01/31 11:13:20;;;;;;;;;;;;;;;25.95;53.87;96376.62;606960;233;67189;-64
2022/01/31 11:15:47;;;;;;;;;;;;;;;25.97;54.33;96367.09;609416;233;65100;-66
2022/01/31 11:18:15;;;;;;;;;;;;;;;25.98;54.20;96359.83;609445;233;66967;-66
2022/01/31 11:20:44;;;;;;;;;;;;;;;26.00;53.86;96354.89;609295;233;67022;-65
2022/01/31 11:23:12;;;;;;;;;;;;;;;26.00;53.81;96363.78;609397;233;65101;-65
2022/01/31 11:25:42;;;;;;;;;;;;;;;26.01;54.43;96368.05;609327;233;66925;-64
2022/01/31 11:28:11;;;;;;;;;;;;;;;26.03;54.16;96365.05;609400;233;67110;-70
2022/01/31 11:30:40;;;;;;;;;;;;;;;26.04;54.46;96358.54;609374;233;62911;-72
2022/01/31 11:33:07;;;;;;;;;;;;;;;26.05;53.92;96354.73;609271;231;64869;-67
2022/01/31 11:35:35;;;;;;;;;;;;;;;26.07;54.13;96347.12;609296;233;65865;-67
2022/01/31 11:38:02;;;;;;;;;;;;;;;26.07;54.11;96339.05;609336;233;63848;-64
2022/01/31 11:40:30;;;;;;;;;;;;;;;26.09;53.95;96342.22;609355;233;68488;-72
2022/01/31 11:42:59;;;;;;;;;;;;;;;26.10;54.36;96336.50;609283;233;64743;-72
2022/01/31 11:45:28;;;;;;;;;;;;;;;26.11;54.52;96331.92;609319;233;65174;-74
2022/01/31 11:47:57;;;;;;;;;;;;;;;26.11;54.15;96324.63;609986;230;67075;-73
2022/01/31 11:50:25;;;;;;;;;;;;;;;26.12;54.06;96322.73;615575;230;67087;-74
2022/01/31 11:52:57;;;;;;;;;;;;;;;26.13;53.81;96316.22;616245;230;64886;-73
2022/01/31 11:55:29;;;;;;;;;;;;;;;26.14;53.67;96312.44;616378;230;64684;-74
2022/01/31 11:57:55;;;;;;;;;;;;;;;26.16;53.53;96304.02;616099;230;65004;-73
2022/01/31 12:00:23;;;;;;;;;;;;;;;26.08;55.54;96297.53;616311;230;62924;-71
2022/01/31 12:02:52;;;;;;;;;;;;;;;26.11;54.31;96291.53;605536;230;70308;-73
2022/01/31 12:05:22;;;;;;;;;;;;;;;26.12;53.12;96279.64;605185;230;70362;-74
2022/01/31 12:07:54;;;;;;;;;;;;;;;26.13;53.26;96286.59;616382;230;65093;-74
2022/01/31 12:10:26;;;;;;;;;;;;;;;26.13;53.21;96290.08;614939;230;64218;-73
2022/01/31 12:13:00;;;;;;;;;;;;;;;26.16;52.74;96277.09;616223;230;64809;-73
2022/01/31 12:16:30;;;;;;;;;;;;;;;26.16;52.57;96279.78;616050;230;64872;-66
2022/01/31 12:23:40;;;;;;;;;;;;;;;26.18;52.28;96274.87;616083;230;63362;-67
2022/01/31 12:26:28;;;;;;;;;;;;;;;26.20;52.54;96273.44;616242;230;64860;-67
2022/01/31 12:28:57;;;;;;;;;;;;;;;26.22;52.10;96287.38;616329;230;66921;-73
2022/01/31 12:31:31;;;;;;;;;;;;;;;26.20;52.92;96286.90;616263;230;65199;-75
2022/01/31 12:33:58;;;;;;;;;;;;;;;26.15;55.70;96287.08;616291;230;67143;-73
2022/01/31 12:36:27;;;;;;;;;;;;;;;26.12;54.42;96266.97;616283;230;67014;-74
2022/01/31 12:38:55;;;;;;;;;;;;;;;26.12;53.79;96256.19;615451;230;64913;-74
2022/01/31 12:41:31;;;;;;;;;;;;;;;26.12;53.75;96250.80;616277;230;67052;-70
2022/01/31 12:44:17;;;;;;;;;;;;;;;26.13;52.81;96248.90;616131;230;64889;-74
2022/01/31 12:46:51;;;;;;;;;;;;;;;26.15;52.43;96252.06;616219;230;65099;-77
2022/01/31 12:49:18;;;;;;;;;;;;;;;26.18;51.62;96248.72;616285;230;65091;-74
2022/01/31 12:51:53;;;;;;;;;;;;;;;26.16;52.67;96237.48;616296;230;64894;-73
2022/01/31 12:54:21;;;;;;;;;;;;;;;26.17;52.33;96235.59;613448;230;62859;-74
2022/01/31 12:56:49;;;;;;;;;;;;;;;26.17;52.97;96236.38;615281;230;67125;-72
2022/01/31 12:59:17;;;;;;;;;;;;;;;26.16;53.21;96232.09;615310;230;66930;-71
2022/01/31 13:01:48;;;;;;;;;;;;;;;26.16;52.65;96240.17;615240;230;63772;-68
2022/01/31 13:04:19;;;;;;;;;;;;;;;26.17;53.04;96243.67;615330;230;67176;-69
2022/01/31 13:06:49;;;;;;;;;;;;;;;26.20;53.62;96243.03;615307;230;67433;-71
2022/01/31 13:09:24;;;;;;;;;;;;;;;26.21;53.62;96241.91;615295;230;63049;-71
2022/01/31 13:11:53;;;;;;;;;;;;;;;26.21;52.74;96231.91;615358;230;67032;-72
2022/01/31 13:14:23;;;;;;;;;;;;;;;26.21;52.78;96236.52;615376;230;66917;-68
2022/01/31 13:17:10;;;;;;;;;;;;;;;26.21;52.58;96245.38;614953;230;62970;-65